Latest Coastal Weather Observations for Townsville

IDQ60701

Issued at 9:31 am EST Wednesday 22 February 2017 (issued every 10 minutes, with the page automatically refreshed every 10 minutes)

About coastal observations | Map of coastal stations | Coastal observations for QLD | Marine services | Other Formats
Station Details ID: 032040 Name: TOWNSVILLE AERO Lat: -19.25 Lon: 146.77 Height: 4.34 m
Data from the previous 72 hours. | See also: Recent months at Townsville
Date/Time
EST
Temp
°C
Wind Pressure Rain since
9am
mm
Weather Cloud Vis
km
Sea
Height
m
Swell
Dir  Spd
kts
Gust
kts
hPa Trend Height
m
Period
s
Dir
22/09:00am 29.4 SE 9 13 1013.5 S 0.0 - Cloudy 10 - - - -
22/08:30am 29.1 SE 8 11 1013.2 - 0.0 - Mostly clear 10 - - - -
22/08:00am 27.7 SSE 7 8 1013.0 - 0.0 - Mostly clear 10 - - - -
22/07:30am 26.9 S 5 7 1013.0 - 0.0 - Mostly clear 10 - - - -
22/07:00am 26.2 WNW 1 4 1012.7 - 0.0 - Mostly clear 10 - - - -
22/06:30am 25.1 WNW 4 5 1012.5 - 0.0 - Mostly clear 10 - - - -
22/06:00am 25.2 NW 6 7 1012.1 F 0.0 - Cloudy 10 - - - -
22/05:30am 25.7 SE 4 6 1011.9 - 0.0 - - 10 - - - -
22/05:00am 25.9 SE 7 9 1011.6 - 0.0 - - 10 - - - -
22/04:30am 26.2 SSE 7 9 1011.4 - 0.0 - - 10 - - - -
22/04:00am 25.8 SSW 5 8 1011.6 - 0.0 - - 10 - - - -
22/03:30am 25.9 SSW 6 7 1011.8 - 0.0 - Partly cloudy 10 - - - -
22/03:00am 25.7 W 5 6 1012.2 F 0.0 - Cloudy 10 - - - -
22/02:30am 25.6 W 8 10 1012.4 - 0.0 - Partly cloudy 10 - - - -
22/02:00am 26.1 WNW 12 17 1012.8 - 0.0 - Partly cloudy 10 - - - -
22/01:30am 27.4 CALM 0 0 1013.0 - 0.0 - - 10 - - - -
22/01:00am 27.4 N 6 7 1013.4 - 0.0 - Partly cloudy 10 - - - -
22/12:30am 27.9 N 9 12 1013.7 - 0.0 - Partly cloudy 10 - - - -
22/12:00am 28.6 NE 7 10 1013.7 R 0.0 - Cloudy 10 - - - -
 
Date/Time
EST
Temp
°C
Wind Pressure Rain since
9am
mm
Weather Cloud Vis
km
Sea
Height
m
Swell
Dir  Spd
kts
Gust
kts
hPa Trend Height
m
Period
s
Dir
21/11:30pm 28.3 NNE 9 11 1013.6 - 0.0 - - 10 - - - -
21/11:00pm 28.5 NE 9 12 1013.7 - 0.0 - - 10 - - - -
21/10:30pm 28.7 NNE 8 10 1013.8 - 0.0 - - 10 - - - -
21/10:00pm 28.7 NNE 10 13 1013.7 - 0.0 - Partly cloudy 10 - - - -
21/09:30pm 28.8 NE 10 13 1013.6 - 0.0 - Partly cloudy 10 - - - -
21/09:00pm 28.9 NE 11 14 1013.3 R 0.0 - Cloudy 10 - - - -
21/08:30pm 28.9 NE 11 14 1012.9 - 0.0 - Partly cloudy 10 - - - -
21/08:00pm 28.7 NE 10 14 1012.3 - 0.0 - Partly cloudy 10 - - - -
21/07:30pm 28.5 ENE 11 15 1012.0 - 0.0 - Partly cloudy 10 - - - -
21/07:00pm 28.5 ENE 10 13 1011.8 - 0.0 - Partly cloudy 10 - - - -
21/06:30pm 28.5 ENE 11 16 1011.3 - 0.0 - Partly cloudy 10 - - - -
21/06:00pm 29.2 ENE 12 15 1011.0 R 0.0 - Cloudy 10 - - - -
21/05:30pm 29.5 ENE 12 15 1010.9 - 0.0 - Partly cloudy 10 - - - -
21/05:00pm 29.8 ENE 11 15 1010.6 - 0.0 - Partly cloudy 10 - - - -
21/04:30pm 30.0 ENE 13 15 1010.2 - 0.0 - Mostly clear 10 - - - -
21/04:00pm 30.1 ENE 13 16 1010.4 - 0.0 - Mostly clear 10 - - - -
21/03:30pm 30.5 ENE 12 16 1010.6 - 0.0 - Mostly clear 10 - - - -
21/03:00pm 30.4 ENE 13 16 1010.6 S 0.0 - Mostly clear 10 - - - -
21/02:30pm 31.3 ENE 13 15 1010.9 - 0.0 - Mostly clear 10 - - - -
21/02:00pm 31.3 NE 12 15 1011.1 - 0.0 - Partly cloudy 10 - - - -
21/01:30pm 30.9 ENE 11 14 1011.2 - 0.0 - Mostly clear 10 - - - -
21/01:00pm 30.4 ENE 11 14 1011.7 - 0.0 - Mostly clear 10 - - - -
21/12:30pm 30.3 NE 10 13 1012.0 - 0.0 - Mostly clear 10 - - - -
21/12:00pm 29.8 ENE 8 11 1012.5 R 0.0 Rain Mostly cloudy 10 - - - -
21/11:30am 29.6 ENE 8 10 1012.7 - 0.0 - Mostly clear 10 - - - -
21/11:00am 28.7 ENE 8 9 1012.9 - 0.0 - Mostly clear 10 - - - -
21/10:30am 30.4 NE 9 10 1013.0 - 0.0 - Mostly clear 10 - - - -
21/10:00am 29.8 ESE 5 7 1013.0 - 0.0 - Mostly clear 10 - - - -
21/09:30am 28.4 E 5 6 1013.0 - 0.0 - Mostly clear 10 - - - -
21/09:00am 26.9 E 6 8 1013.0 R 0.2 - Cloudy 10 - - - -
21/08:30am 26.7 ENE 9 11 1012.8 - 0.2 - Mostly clear 10 - - - -
21/08:00am 27.1 ESE 6 8 1012.5 - 0.2 - Mostly clear 8 - - - -
21/07:30am 27.0 SE 5 6 1011.9 - 0.2 - Mostly clear 10 - - - -
21/07:00am 27.1 SSE 1 4 1011.3 - 0.2 - Mostly clear 10 - - - -
21/06:36am 26.8 SSE 4 5 1011.1 - 0.2 - Mostly clear 10 - - - -
21/06:30am 26.7 SSE 4 5 1011.0 - 0.2 - - 10 - - - -
21/06:00am 26.7 S 4 5 1010.7 R 0.2 - Mostly clear 10 - - - -
21/05:30am 27.0 SSW 5 5 1010.5 - 0.2 - - 10 - - - -
21/05:00am 27.0 SSW 5 6 1010.5 - 0.2 - Partly cloudy 10 - - - -
21/04:30am 27.1 SSW 5 6 1010.3 - 0.2 - Partly cloudy 10 - - - -
21/04:00am 27.0 S 4 5 1009.9 - 0.2 - Partly cloudy 10 - - - -
21/03:30am 27.2 S 5 5 1009.7 - 0.2 - Partly cloudy 10 - - - -
21/03:00am 27.6 SW 5 5 1009.7 R 0.2 - Cloudy 10 - - - -
21/02:30am 27.4 CALM 0 0 1009.8 - 0.2 - Cloudy 10 - - - -
21/02:00am 27.7 CALM 0 0 1009.8 - 0.2 - Cloudy 10 - - - -
21/01:30am 27.5 CALM 0 0 1010.2 - 0.2 - Partly cloudy 10 - - - -
21/01:00am 27.2 CALM 0 0 1010.3 - 0.2 - - 10 - - - -
21/12:30am 27.0 CALM 0 0 1010.8 - 0.2 - Partly cloudy 10 - - - -
21/12:00am 27.6 CALM 0 0 1011.0 F 0.2 - Cloudy 10 - - - -
 
Date/Time
EST
Temp
°C
Wind Pressure Rain since
9am
mm
Weather Cloud Vis
km
Sea
Height
m
Swell
Dir  Spd
kts
Gust
kts
hPa Trend Height
m
Period
s
Dir
20/11:30pm 27.5 CALM 0 0 1011.0 - 0.2 - Partly cloudy 10 - - - -
20/11:00pm 27.8 CALM 0 0 1011.2 - 0.2 - Partly cloudy 10 - - - -
20/10:30pm 27.7 NNW 1 4 1011.3 - 0.2 - - 10 - - - -
20/10:00pm 28.1 CALM 0 0 1011.2 - 0.2 - - 10 - - - -
20/09:30pm 28.0 CALM 0 0 1011.0 - 0.2 - - 10 - - - -
20/09:00pm 28.2 NNW 3 5 1010.8 R 0.2 - Cloudy 10 - - - -
20/08:30pm 28.4 N 4 5 1010.5 - 0.2 - - 10 - - - -
20/08:00pm 28.5 N 4 4 1010.0 - 0.2 - - 10 - - - -
20/07:30pm 28.3 N 4 4 1009.9 - 0.2 - - 10 - - - -
20/07:00pm 28.6 N 4 6 1009.4 - 0.2 - - 10 - - - -
20/06:30pm 28.9 NNW 5 7 1008.8 - 0.2 - - 10 - - - -
20/06:00pm 29.2 N 7 9 1008.3 R 0.2 - - 10 - - - -
20/05:30pm 29.9 N 8 10 1008.0 - 0.2 - Mostly clear 10 - - - -
20/05:00pm 30.1 NNW 10 14 1008.0 - 0.2 - Mostly clear 10 - - - -
20/04:30pm 30.3 NNW 9 12 1007.8 - 0.2 - Mostly clear 10 - - - -
20/04:00pm 30.3 N 9 13 1007.7 - 0.2 - Mostly clear 10 - - - -
20/03:30pm 30.3 N 8 14 1007.8 - 0.2 - Mostly clear 10 - - - -
20/03:00pm 30.5 NNW 10 14 1008.0 R 0.2 - Mostly clear 10 - - - -
20/02:30pm 31.5 N 10 15 1008.0 - 0.2 - Mostly clear 10 - - - -
20/02:00pm 30.8 NNE 7 11 1008.1 - 0.2 - Mostly clear 10 - - - -
20/01:30pm 31.3 N 9 14 1008.3 - 0.2 - Mostly clear 10 - - - -
20/01:00pm 31.0 NNE 12 17 1008.5 - 0.2 - Mostly clear 10 - - - -
20/12:30pm 31.6 NE 9 13 1009.1 - 0.2 - Mostly clear 10 - - - -
20/12:00pm 30.8 NNE 9 13 1009.3 R 0.0 Rain Mostly cloudy 10 - - - -
20/11:30am 30.4 NE 10 14 1009.6 - 0.0 - Partly cloudy 10 - - - -
20/11:00am 31.5 NE 6 9 1009.6 - 0.0 - Mostly clear 10 - - - -
20/10:30am 30.9 ENE 6 8 1009.6 - 0.0 - Mostly clear 10 - - - -
20/10:00am 30.3 NE 4 6 1009.9 - 0.0 - Mostly clear 10 - - - -
20/09:30am 29.8 NE 4 6 1010.0 - 0.0 - Mostly clear 10 - - - -
20/09:00am 29.5 E 2 4 1009.9 R 1.8 - Mostly cloudy 10 - - - -
20/08:30am 29.0 CALM 0 0 1009.7 - 1.8 - Mostly clear 10 - - - -
20/08:00am 28.7 SSW 4 5 1009.3 - 1.8 - Mostly clear 10 - - - -
20/07:30am 27.6 SSE 5 6 1009.1 - 1.8 - Mostly clear 10 - - - -
20/07:00am 26.8 S 6 7 1008.9 - 1.8 - Mostly clear 10 - - - -
20/06:30am 26.0 S 5 7 1008.6 - 1.8 - Mostly clear 10 - - - -
20/06:00am 25.0 CALM 0 0 1008.0 R 1.8 - Partly cloudy 10 - - - -
20/05:30am 25.2 E 1 4 1007.8 - 1.8 - - 10 - - - -
20/05:00am 25.2 ESE 3 5 1007.5 - 1.8 - - 10 - - - -
20/04:30am 25.3 CALM 0 0 1007.4 - 1.8 - - 10 - - - -
20/04:00am 25.5 CALM 0 0 1007.3 - 1.8 - - 10 - - - -
20/03:30am 25.5 CALM 0 0 1007.4 - 1.8 - Partly cloudy 10 - - - -
20/03:00am 25.6 NNW 3 4 1007.4 F 1.8 - Cloudy 10 - - - -
20/02:30am 25.7 NNW 3 4 1007.6 - 1.8 - Partly cloudy 10 - - - -
20/02:00am 25.9 CALM 0 4 1008.0 - 1.8 - Partly cloudy 10 - - - -
20/01:30am 26.0 CALM 0 0 1008.1 - 1.8 - Partly cloudy 10 - - - -
20/01:00am 26.0 CALM 0 0 1008.4 - 1.8 - Partly cloudy 10 - - - -
20/12:30am 25.9 CALM 0 0 1008.9 - 1.8 - Partly cloudy 10 - - - -
20/12:00am 26.0 WSW 3 4 1009.3 S 1.8 - Cloudy 10 - - - -
 
Date/Time
EST
Temp
°C
Wind Pressure Rain since
9am
mm
Weather Cloud Vis
km
Sea
Height
m
Swell
Dir  Spd
kts
Gust
kts
hPa Trend Height
m
Period
s
Dir
19/11:30pm 25.7 W 5 7 1009.6 - 1.8 - Partly cloudy 10 - - - -
19/11:00pm 25.6 W 5 7 1009.5 - 1.8 - Partly cloudy 10 - - - -
19/10:30pm 25.8 NW 6 6 1009.5 - 1.8 - Partly cloudy 10 - - - -
19/10:00pm 25.9 CALM 0 0 1009.2 - 1.8 - Partly cloudy 10 - - - -
19/09:30pm 26.0 CALM 0 0 1009.1 - 1.8 - Partly cloudy 10 - - - -
19/09:00pm 25.9 ENE 2 4 1009.0 F 1.8 Showers Mostly cloudy 10 - - - -
19/08:30pm 26.0 CALM 0 0 1008.8 - 1.8 - Partly cloudy 10 - - - -
19/08:00pm 26.2 SW 5 6 1008.3 - 1.6 - - 10 - - - -
19/07:30pm 25.8 SSW 8 10 1008.1 - 1.6 - - 10 - - - -
19/07:00pm 25.8 S 6 7 1007.7 - 1.6 - - 10 - - - -
19/06:30pm 25.5 SW 9 11 1007.7 - 1.6 - Cloudy 7 - - - -
19/06:00pm 26.3 WSW 13 18 1007.5 R 0.2 Rain Cloudy 10 - - - -
19/05:30pm 29.4 NNW 6 8 1007.0 - 0.0 - Cloudy 10 - - - -
19/05:00pm 29.6 N 8 10 1006.1 - 0.0 - Partly cloudy 10 - - - -
19/04:30pm 29.6 N 10 13 1005.7 - 0.0 - Partly cloudy 10 - - - -
19/04:00pm 30.1 NNW 9 13 1006.0 - 0.0 - Cloudy 10 - - - -
19/03:30pm 30.1 N 11 16 1005.8 - 0.0 - - 10 - - - -
19/03:00pm 30.6 N 12 17 1005.9 F 0.0 - Partly cloudy 10 - - - -
19/02:30pm 31.5 N 9 13 1006.2 - 0.0 - - 10 - - - -
19/02:00pm 31.4 NNW 8 12 1006.7 - 0.0 - - 10 - - - -
19/01:30pm 31.6 NE 8 14 1007.0 - 0.0 - - 10 - - - -
19/01:00pm 32.1 NE 11 15 1007.6 - 0.0 - - 10 - - - -
19/12:30pm 31.7 NNE 10 14 1008.0 - 0.0 - - 10 - - - -
19/12:00pm 31.8 NNE 10 15 1008.4 F 0.0 - Mostly clear 10 - - - -
19/11:30am 31.6 NNE 7 12 1008.8 - 0.0 - Mostly clear 10 - - - -
19/11:00am 31.0 NE 5 7 1009.0 - 0.0 - Mostly clear 10 - - - -
19/10:30am 31.3 NNW 6 7 1009.5 - 0.0 - Mostly clear 10 - - - -
19/10:00am 30.2 N 5 8 1009.8 - 0.0 - Mostly clear 10 - - - -

Other Formats:

Comma delimited format used in spreadsheet applications
http://www.bom.gov.au/fwo/IDQ60701/IDQ60701.94294.axf

JavaScript Object Notation format (JSON) in row-major order
http://www.bom.gov.au/fwo/IDQ60701/IDQ60701.94294.json